sensor_id;sensor_type;location;lat;lon;timestamp;pressure;altitude;pressure_sealevel;temperature;humidity
22025;BME280;11176;51.448;6.650;2023-01-27T00:00:27;45718.00;;;-141.29;97.52
22025;BME280;11176;51.448;6.650;2023-01-27T00:02:53;45706.00;;;-141.29;97.92
22025;BME280;11176;51.448;6.650;2023-01-27T00:05:20;45718.00;;;-141.29;98.08
22025;BME280;11176;51.448;6.650;2023-01-27T00:07:47;45710.00;;;-141.29;98.36
22025;BME280;11176;51.448;6.650;2023-01-27T00:10:17;45706.00;;;-141.29;98.37
22025;BME280;11176;51.448;6.650;2023-01-27T00:12:45;45706.00;;;-141.29;98.64
22025;BME280;11176;51.448;6.650;2023-01-27T00:15:31;45716.00;;;-141.29;99.20
22025;BME280;11176;51.448;6.650;2023-01-27T00:17:58;45706.00;;;-141.29;99.47
22025;BME280;11176;51.448;6.650;2023-01-27T00:20:25;45712.00;;;-141.29;99.72
22025;BME280;11176;51.448;6.650;2023-01-27T00:23:19;45706.00;;;-141.29;100.00
22025;BME280;11176;51.448;6.650;2023-01-27T00:26:06;45716.00;;;-141.29;100.00
22025;BME280;11176;51.448;6.650;2023-01-27T00:28:38;45698.00;;;-141.29;100.00
22025;BME280;11176;51.448;6.650;2023-01-27T00:31:07;45706.00;;;-141.29;100.00
22025;BME280;11176;51.448;6.650;2023-01-27T00:33:53;45698.00;;;-141.29;100.00
22025;BME280;11176;51.448;6.650;2023-01-27T00:36:21;45702.00;;;-141.29;100.00
22025;BME280;11176;51.448;6.650;2023-01-27T00:38:48;45722.00;;;-141.29;100.00
22025;BME280;11176;51.448;6.650;2023-01-27T00:41:14;45716.00;;;-141.29;100.00
22025;BME280;11176;51.448;6.650;2023-01-27T00:43:52;45718.00;;;-141.29;100.00
22025;BME280;11176;51.448;6.650;2023-01-27T00:46:20;45725.97;;;-141.29;100.00
22025;BME280;11176;51.448;6.650;2023-01-27T00:48:47;45718.00;;;-141.29;100.00
22025;BME280;11176;51.448;6.650;2023-01-27T00:51:14;45720.00;;;-141.29;100.00
22025;BME280;11176;51.448;6.650;2023-01-27T00:53:41;45720.00;;;-141.29;100.00
22025;BME280;11176;51.448;6.650;2023-01-27T00:56:08;45706.00;;;-141.29;100.00
22025;BME280;11176;51.448;6.650;2023-01-27T00:58:35;45718.00;;;-141.29;100.00
22025;BME280;11176;51.448;6.650;2023-01-27T01:01:04;45714.00;;;-141.29;100.00
22025;BME280;11176;51.448;6.650;2023-01-27T01:03:32;45694.00;;;-141.29;100.00
22025;BME280;11176;51.448;6.650;2023-01-27T01:06:06;45714.00;;;-141.29;100.00
22025;BME280;11176;51.448;6.650;2023-01-27T01:08:33;45706.00;;;-141.29;100.00
22025;BME280;11176;51.448;6.650;2023-01-27T01:11:02;45706.00;;;-141.29;100.00
22025;BME280;11176;51.448;6.650;2023-01-27T01:13:29;45714.00;;;-141.29;100.00
22025;BME280;11176;51.448;6.650;2023-01-27T01:15:55;45708.00;;;-141.29;100.00
22025;BME280;11176;51.448;6.650;2023-01-27T01:18:23;45714.00;;;-141.29;100.00
22025;BME280;11176;51.448;6.650;2023-01-27T01:20:49;45714.00;;;-141.29;100.00
22025;BME280;11176;51.448;6.650;2023-01-27T01:23:16;45722.00;;;-141.29;100.00
22025;BME280;11176;51.448;6.650;2023-01-27T01:25:51;45710.00;;;-141.29;100.00
22025;BME280;11176;51.448;6.650;2023-01-27T01:28:18;45706.00;;;-141.29;100.00
22025;BME280;11176;51.448;6.650;2023-01-27T01:30:44;45702.00;;;-141.29;100.00
22025;BME280;11176;51.448;6.650;2023-01-27T01:33:11;45706.00;;;-141.29;100.00
22025;BME280;11176;51.448;6.650;2023-01-27T01:35:37;45694.00;;;-141.29;100.00
22025;BME280;11176;51.448;6.650;2023-01-27T01:38:05;45696.00;;;-141.29;100.00
22025;BME280;11176;51.448;6.650;2023-01-27T01:40:31;45702.00;;;-141.29;100.00
22025;BME280;11176;51.448;6.650;2023-01-27T01:43:00;45708.00;;;-141.29;100.00
22025;BME280;11176;51.448;6.650;2023-01-27T01:48:47;45698.00;;;-141.29;100.00
22025;BME280;11176;51.448;6.650;2023-01-27T01:51:04;45712.00;;;-141.29;100.00
22025;BME280;11176;51.448;6.650;2023-01-27T01:53:39;45722.00;;;-141.29;100.00
22025;BME280;11176;51.448;6.650;2023-01-27T01:56:11;45702.00;;;-141.29;100.00
22025;BME280;11176;51.448;6.650;2023-01-27T01:58:40;45714.00;;;-141.29;100.00
22025;BME280;11176;51.448;6.650;2023-01-27T02:01:09;45696.00;;;-141.29;100.00
22025;BME280;11176;51.448;6.650;2023-01-27T02:03:38;45694.00;;;-141.29;100.00
22025;BME280;11176;51.448;6.650;2023-01-27T02:06:08;45708.00;;;-141.29;100.00
22025;BME280;11176;51.448;6.650;2023-01-27T02:08:41;45725.97;;;-141.29;100.00
22025;BME280;11176;51.448;6.650;2023-01-27T02:11:09;45718.00;;;-141.29;100.00
22025;BME280;11176;51.448;6.650;2023-01-27T02:13:37;45718.00;;;-141.29;100.00
22025;BME280;11176;51.448;6.650;2023-01-27T02:16:07;45714.00;;;-141.29;99.85
22025;BME280;11176;51.448;6.650;2023-01-27T02:18:34;45725.97;;;-141.29;99.38
22025;BME280;11176;51.448;6.650;2023-01-27T02:21:01;45714.00;;;-141.29;99.78
22025;BME280;11176;51.448;6.650;2023-01-27T02:26:15;45712.00;;;-141.29;98.95
22025;BME280;11176;51.448;6.650;2023-01-27T02:28:43;45700.00;;;-141.29;99.29
22025;BME280;11176;51.448;6.650;2023-01-27T02:31:10;45741.97;;;-141.29;98.60
22025;BME280;11176;51.448;6.650;2023-01-27T02:33:37;45708.00;;;-141.29;98.48
22025;BME280;11176;51.448;6.650;2023-01-27T02:36:15;45714.00;;;-141.29;98.47
22025;BME280;11176;51.448;6.650;2023-01-27T02:38:45;45725.97;;;-141.29;98.40
22025;BME280;11176;51.448;6.650;2023-01-27T02:41:33;45716.00;;;-141.29;98.53
22025;BME280;11176;51.448;6.650;2023-01-27T02:44:00;45702.00;;;-141.29;98.82
22025;BME280;11176;51.448;6.650;2023-01-27T02:46:27;45718.00;;;-141.29;98.85
22025;BME280;11176;51.448;6.650;2023-01-27T02:48:56;45729.97;;;-141.29;99.13
22025;BME280;11176;51.448;6.650;2023-01-27T02:51:23;45710.00;;;-141.29;99.20
22025;BME280;11176;51.448;6.650;2023-01-27T02:53:50;45710.00;;;-141.29;99.25
22025;BME280;11176;51.448;6.650;2023-01-27T02:56:18;45725.97;;;-141.29;99.40
22025;BME280;11176;51.448;6.650;2023-01-27T02:58:45;45706.00;;;-141.29;99.66
22025;BME280;11176;51.448;6.650;2023-01-27T03:01:15;45706.00;;;-141.29;99.60
22025;BME280;11176;51.448;6.650;2023-01-27T03:03:42;45714.00;;;-141.29;99.50
22025;BME280;11176;51.448;6.650;2023-01-27T03:06:17;45702.00;;;-141.29;99.33
22025;BME280;11176;51.448;6.650;2023-01-27T03:08:44;45722.00;;;-141.29;98.25
22025;BME280;11176;51.448;6.650;2023-01-27T03:11:13;45733.97;;;-141.29;97.93
22025;BME280;11176;51.448;6.650;2023-01-27T03:13:39;45722.00;;;-141.29;97.36
22025;BME280;11176;51.448;6.650;2023-01-27T03:16:06;45725.97;;;-141.29;97.49
22025;BME280;11176;51.448;6.650;2023-01-27T03:18:52;45741.97;;;-141.29;97.03
22025;BME280;11176;51.448;6.650;2023-01-27T03:21:21;45718.00;;;-141.29;97.72
22025;BME280;11176;51.448;6.650;2023-01-27T03:23:48;45741.97;;;-141.29;97.78
22025;BME280;11176;51.448;6.650;2023-01-27T03:26:19;45749.97;;;-141.29;97.70
22025;BME280;11176;51.448;6.650;2023-01-27T03:28:50;45720.00;;;-141.29;98.22
22025;BME280;11176;51.448;6.650;2023-01-27T03:31:40;45729.97;;;-141.29;98.87
22025;BME280;11176;51.448;6.650;2023-01-27T03:34:08;45725.97;;;-141.29;99.15
22025;BME280;11176;51.448;6.650;2023-01-27T03:36:40;45712.00;;;-141.29;99.07
22025;BME280;11176;51.448;6.650;2023-01-27T03:39:25;45739.97;;;-141.29;99.44
22025;BME280;11176;51.448;6.650;2023-01-27T03:42:10;45737.97;;;-141.29;100.00
22025;BME280;11176;51.448;6.650;2023-01-27T03:44:56;45722.00;;;-141.29;100.00
22025;BME280;11176;51.448;6.650;2023-01-27T03:47:41;45722.00;;;-141.29;100.00
22025;BME280;11176;51.448;6.650;2023-01-27T03:50:08;45716.00;;;-141.29;100.00
22025;BME280;11176;51.448;6.650;2023-01-27T03:52:36;45733.97;;;-141.29;100.00
22025;BME280;11176;51.448;6.650;2023-01-27T03:55:03;45751.97;;;-141.29;100.00
22025;BME280;11176;51.448;6.650;2023-01-27T03:57:30;45724.00;;;-141.29;100.00
22025;BME280;11176;51.448;6.650;2023-01-27T03:59:57;45708.00;;;-141.29;100.00
22025;BME280;11176;51.448;6.650;2023-01-27T04:02:24;45731.97;;;-141.29;100.00
22025;BME280;11176;51.448;6.650;2023-01-27T04:05:09;45735.97;;;-141.29;100.00
22025;BME280;11176;51.448;6.650;2023-01-27T04:07:54;45733.97;;;-141.29;100.00
22025;BME280;11176;51.448;6.650;2023-01-27T04:10:21;45722.00;;;-141.29;100.00
22025;BME280;11176;51.448;6.650;2023-01-27T04:12:47;45720.00;;;-141.29;100.00
22025;BME280;11176;51.448;6.650;2023-01-27T04:15:14;45704.00;;;-141.29;100.00
22025;BME280;11176;51.448;6.650;2023-01-27T04:17:44;45737.97;;;-141.29;100.00
22025;BME280;11176;51.448;6.650;2023-01-27T04:20:11;45735.97;;;-141.29;100.00
22025;BME280;11176;51.448;6.650;2023-01-27T04:22:38;45729.97;;;-141.29;100.00
22025;BME280;11176;51.448;6.650;2023-01-27T04:25:05;45757.97;;;-141.29;100.00
22025;BME280;11176;51.448;6.650;2023-01-27T04:27:32;45733.97;;;-141.29;100.00
22025;BME280;11176;51.448;6.650;2023-01-27T04:29:58;45724.00;;;-141.29;100.00
22025;BME280;11176;51.448;6.650;2023-01-27T04:32:25;45724.00;;;-141.29;100.00
22025;BME280;11176;51.448;6.650;2023-01-27T04:34:52;45725.97;;;-141.29;100.00
22025;BME280;11176;51.448;6.650;2023-01-27T04:37:19;45741.97;;;-141.29;100.00
22025;BME280;11176;51.448;6.650;2023-01-27T04:39:46;45737.97;;;-141.29;100.00
22025;BME280;11176;51.448;6.650;2023-01-27T04:42:12;45714.00;;;-141.29;100.00
22025;BME280;11176;51.448;6.650;2023-01-27T04:44:39;45724.00;;;-141.29;100.00
22025;BME280;11176;51.448;6.650;2023-01-27T04:47:05;45737.97;;;-141.29;100.00
22025;BME280;11176;51.448;6.650;2023-01-27T04:49:31;45725.97;;;-141.29;100.00
22025;BME280;11176;51.448;6.650;2023-01-27T04:51:58;45753.97;;;-141.29;100.00
22025;BME280;11176;51.448;6.650;2023-01-27T04:54:24;45735.97;;;-141.29;100.00
22025;BME280;11176;51.448;6.650;2023-01-27T04:56:57;45729.97;;;-141.29;100.00
22025;BME280;11176;51.448;6.650;2023-01-27T04:59:24;45725.97;;;-141.29;100.00
22025;BME280;11176;51.448;6.650;2023-01-27T05:01:50;45722.00;;;-141.29;100.00
22025;BME280;11176;51.448;6.650;2023-01-27T05:04:17;45737.97;;;-141.29;100.00
22025;BME280;11176;51.448;6.650;2023-01-27T05:06:44;45741.97;;;-141.29;100.00
22025;BME280;11176;51.448;6.650;2023-01-27T05:09:10;45702.00;;;-141.29;100.00
22025;BME280;11176;51.448;6.650;2023-01-27T05:11:37;45749.97;;;-141.29;100.00
22025;BME280;11176;51.448;6.650;2023-01-27T05:14:03;45718.00;;;-141.29;100.00
22025;BME280;11176;51.448;6.650;2023-01-27T05:16:30;45737.97;;;-141.29;100.00
22025;BME280;11176;51.448;6.650;2023-01-27T05:18:56;45729.97;;;-141.29;100.00
22025;BME280;11176;51.448;6.650;2023-01-27T05:21:25;45727.97;;;-141.29;100.00
22025;BME280;11176;51.448;6.650;2023-01-27T05:23:56;45710.00;;;-141.29;100.00
22025;BME280;11176;51.448;6.650;2023-01-27T05:26:25;45718.00;;;-141.29;100.00
22025;BME280;11176;51.448;6.650;2023-01-27T05:28:52;45716.00;;;-141.29;100.00
22025;BME280;11176;51.448;6.650;2023-01-27T05:31:22;45722.00;;;-141.29;100.00
22025;BME280;11176;51.448;6.650;2023-01-27T05:33:51;45735.97;;;-141.29;100.00
22025;BME280;11176;51.448;6.650;2023-01-27T05:36:19;45733.97;;;-141.29;100.00
22025;BME280;11176;51.448;6.650;2023-01-27T05:38:46;45737.97;;;-141.29;100.00
22025;BME280;11176;51.448;6.650;2023-01-27T05:41:14;45725.97;;;-141.29;100.00
22025;BME280;11176;51.448;6.650;2023-01-27T05:43:43;45747.97;;;-141.29;100.00
22025;BME280;11176;51.448;6.650;2023-01-27T05:46:15;45729.97;;;-141.29;100.00
22025;BME280;11176;51.448;6.650;2023-01-27T05:48:44;45722.00;;;-141.29;100.00
22025;BME280;11176;51.448;6.650;2023-01-27T05:51:12;45737.97;;;-141.29;100.00
22025;BME280;11176;51.448;6.650;2023-01-27T05:53:41;45729.97;;;-141.29;100.00
22025;BME280;11176;51.448;6.650;2023-01-27T05:56:09;45727.97;;;-141.29;100.00
22025;BME280;11176;51.448;6.650;2023-01-27T05:58:37;45729.97;;;-141.29;100.00
22025;BME280;11176;51.448;6.650;2023-01-27T06:01:08;45718.00;;;-141.29;100.00
22025;BME280;11176;51.448;6.650;2023-01-27T06:03:35;45739.97;;;-141.29;100.00
22025;BME280;11176;51.448;6.650;2023-01-27T06:06:02;45722.00;;;-141.29;100.00
22025;BME280;11176;51.448;6.650;2023-01-27T06:08:29;45729.97;;;-141.29;100.00
22025;BME280;11176;51.448;6.650;2023-01-27T06:10:57;45718.00;;;-141.29;100.00
22025;BME280;11176;51.448;6.650;2023-01-27T06:13:24;45741.97;;;-141.29;100.00
22025;BME280;11176;51.448;6.650;2023-01-27T06:15:51;45733.97;;;-141.29;100.00
22025;BME280;11176;51.448;6.650;2023-01-27T06:18:18;45722.00;;;-141.29;100.00
22025;BME280;11176;51.448;6.650;2023-01-27T06:20:45;45725.97;;;-141.29;100.00
22025;BME280;11176;51.448;6.650;2023-01-27T06:23:13;45735.97;;;-141.29;100.00
22025;BME280;11176;51.448;6.650;2023-01-27T06:25:44;45722.00;;;-141.29;100.00
22025;BME280;11176;51.448;6.650;2023-01-27T06:28:10;45733.97;;;-141.29;100.00
22025;BME280;11176;51.448;6.650;2023-01-27T06:30:52;45737.97;;;-141.29;100.00
22025;BME280;11176;51.448;6.650;2023-01-27T06:33:19;45739.97;;;-141.29;100.00
22025;BME280;11176;51.448;6.650;2023-01-27T06:35:45;45737.97;;;-141.29;100.00
22025;BME280;11176;51.448;6.650;2023-01-27T06:38:12;45727.97;;;-141.29;100.00
22025;BME280;11176;51.448;6.650;2023-01-27T06:40:40;45722.00;;;-141.29;100.00
22025;BME280;11176;51.448;6.650;2023-01-27T06:43:13;45722.00;;;-141.29;100.00
22025;BME280;11176;51.448;6.650;2023-01-27T06:45:39;45724.00;;;-141.29;100.00
22025;BME280;11176;51.448;6.650;2023-01-27T06:48:06;45737.97;;;-141.29;100.00
22025;BME280;11176;51.448;6.650;2023-01-27T06:50:34;45733.97;;;-141.29;100.00
22025;BME280;11176;51.448;6.650;2023-01-27T06:53:03;45729.97;;;-141.29;100.00
22025;BME280;11176;51.448;6.650;2023-01-27T06:55:31;45737.97;;;-141.29;100.00
22025;BME280;11176;51.448;6.650;2023-01-27T06:57:57;45737.97;;;-141.29;100.00
22025;BME280;11176;51.448;6.650;2023-01-27T07:00:24;45714.00;;;-141.29;100.00
22025;BME280;11176;51.448;6.650;2023-01-27T07:02:54;45714.00;;;-141.29;100.00
22025;BME280;11176;51.448;6.650;2023-01-27T07:05:21;45731.97;;;-141.29;100.00
22025;BME280;11176;51.448;6.650;2023-01-27T07:07:47;45724.00;;;-141.29;100.00
22025;BME280;11176;51.448;6.650;2023-01-27T07:10:14;45731.97;;;-141.29;100.00
22025;BME280;11176;51.448;6.650;2023-01-27T07:12:41;45745.97;;;-141.29;100.00
22025;BME280;11176;51.448;6.650;2023-01-27T07:15:08;45729.97;;;-141.29;100.00
22025;BME280;11176;51.448;6.650;2023-01-27T07:17:36;45737.97;;;-141.29;100.00
22025;BME280;11176;51.448;6.650;2023-01-27T07:20:04;45714.00;;;-141.29;100.00
22025;BME280;11176;51.448;6.650;2023-01-27T07:22:31;45718.00;;;-141.29;100.00
22025;BME280;11176;51.448;6.650;2023-01-27T07:24:58;45733.97;;;-141.29;100.00
22025;BME280;11176;51.448;6.650;2023-01-27T07:27:25;45725.97;;;-141.29;100.00
22025;BME280;11176;51.448;6.650;2023-01-27T07:29:51;45724.00;;;-141.29;100.00
22025;BME280;11176;51.448;6.650;2023-01-27T07:32:18;45718.00;;;-141.29;100.00
22025;BME280;11176;51.448;6.650;2023-01-27T07:34:44;45731.97;;;-141.29;100.00
22025;BME280;11176;51.448;6.650;2023-01-27T07:37:12;45733.97;;;-141.29;100.00
22025;BME280;11176;51.448;6.650;2023-01-27T07:39:38;45718.00;;;-141.29;100.00
22025;BME280;11176;51.448;6.650;2023-01-27T07:42:05;45735.97;;;-141.29;100.00
22025;BME280;11176;51.448;6.650;2023-01-27T07:44:32;45737.97;;;-141.29;100.00
22025;BME280;11176;51.448;6.650;2023-01-27T07:46:58;45714.00;;;-141.29;100.00
22025;BME280;11176;51.448;6.650;2023-01-27T07:49:25;45702.00;;;-141.29;100.00
22025;BME280;11176;51.448;6.650;2023-01-27T07:51:53;45718.00;;;-141.29;100.00
22025;BME280;11176;51.448;6.650;2023-01-27T07:54:19;45725.97;;;-141.29;100.00
22025;BME280;11176;51.448;6.650;2023-01-27T07:56:46;45700.00;;;-141.29;100.00
22025;BME280;11176;51.448;6.650;2023-01-27T07:59:12;45706.00;;;-141.29;100.00
22025;BME280;11176;51.448;6.650;2023-01-27T08:01:39;45718.00;;;-141.29;100.00
22025;BME280;11176;51.448;6.650;2023-01-27T08:04:07;45696.00;;;-141.29;100.00
22025;BME280;11176;51.448;6.650;2023-01-27T08:06:33;45725.97;;;-141.29;100.00
22025;BME280;11176;51.448;6.650;2023-01-27T08:09:00;45733.97;;;-141.29;100.00
22025;BME280;11176;51.448;6.650;2023-01-27T08:11:26;45731.97;;;-141.29;100.00
22025;BME280;11176;51.448;6.650;2023-01-27T08:13:53;45710.00;;;-141.29;100.00
22025;BME280;11176;51.448;6.650;2023-01-27T08:16:19;45716.00;;;-141.29;100.00
22025;BME280;11176;51.448;6.650;2023-01-27T08:18:45;45698.00;;;-141.29;100.00
22025;BME280;11176;51.448;6.650;2023-01-27T08:21:12;45708.00;;;-141.29;100.00
22025;BME280;11176;51.448;6.650;2023-01-27T08:23:39;45710.00;;;-141.29;100.00
22025;BME280;11176;51.448;6.650;2023-01-27T08:26:06;45737.97;;;-141.29;100.00
22025;BME280;11176;51.448;6.650;2023-01-27T08:28:35;45712.00;;;-141.29;100.00
22025;BME280;11176;51.448;6.650;2023-01-27T08:31:13;45733.97;;;-141.29;100.00
22025;BME280;11176;51.448;6.650;2023-01-27T08:33:42;45710.00;;;-141.29;100.00
22025;BME280;11176;51.448;6.650;2023-01-27T08:36:11;45708.00;;;-141.29;100.00
22025;BME280;11176;51.448;6.650;2023-01-27T08:38:39;45729.97;;;-141.29;100.00
22025;BME280;11176;51.448;6.650;2023-01-27T08:41:09;45716.00;;;-141.29;100.00
22025;BME280;11176;51.448;6.650;2023-01-27T08:43:36;45722.00;;;-141.29;100.00
22025;BME280;11176;51.448;6.650;2023-01-27T08:46:03;45702.00;;;-141.29;100.00
22025;BME280;11176;51.448;6.650;2023-01-27T08:48:30;45722.00;;;-141.29;100.00
22025;BME280;11176;51.448;6.650;2023-01-27T08:50:58;45714.00;;;-141.29;100.00
22025;BME280;11176;51.448;6.650;2023-01-27T08:53:25;45698.00;;;-141.29;100.00
22025;BME280;11176;51.448;6.650;2023-01-27T08:55:55;45708.00;;;-141.29;100.00
22025;BME280;11176;51.448;6.650;2023-01-27T08:58:22;45712.00;;;-141.29;100.00
22025;BME280;11176;51.448;6.650;2023-01-27T09:00:49;45706.00;;;-141.29;100.00
22025;BME280;11176;51.448;6.650;2023-01-27T09:03:16;45702.00;;;-141.29;100.00
22025;BME280;11176;51.448;6.650;2023-01-27T09:05:42;45704.00;;;-141.29;100.00
22025;BME280;11176;51.448;6.650;2023-01-27T09:08:09;45706.00;;;-141.29;100.00
22025;BME280;11176;51.448;6.650;2023-01-27T09:10:37;45725.97;;;-141.29;100.00
22025;BME280;11176;51.448;6.650;2023-01-27T09:13:04;45702.00;;;-141.29;100.00
22025;BME280;11176;51.448;6.650;2023-01-27T09:15:31;45702.00;;;-141.29;100.00
22025;BME280;11176;51.448;6.650;2023-01-27T09:17:59;45714.00;;;-141.29;100.00
22025;BME280;11176;51.448;6.650;2023-01-27T09:20:25;45720.00;;;-141.29;100.00
22025;BME280;11176;51.448;6.650;2023-01-27T09:22:53;45712.00;;;-141.29;100.00
22025;BME280;11176;51.448;6.650;2023-01-27T09:25:20;45702.00;;;-141.29;100.00
22025;BME280;11176;51.448;6.650;2023-01-27T09:27:46;45710.00;;;-141.29;100.00
22025;BME280;11176;51.448;6.650;2023-01-27T09:30:14;45690.00;;;-141.29;100.00
22025;BME280;11176;51.448;6.650;2023-01-27T09:32:41;45710.00;;;-141.29;100.00
22025;BME280;11176;51.448;6.650;2023-01-27T09:35:08;45690.00;;;-141.29;100.00
22025;BME280;11176;51.448;6.650;2023-01-27T09:37:39;45718.00;;;-141.29;100.00
22025;BME280;11176;51.448;6.650;2023-01-27T09:40:31;45704.00;;;-141.29;100.00
22025;BME280;11176;51.448;6.650;2023-01-27T09:45:47;45706.00;;;-141.29;100.00
22025;BME280;11176;51.448;6.650;2023-01-27T09:48:35;45714.00;;;-141.29;100.00
22025;BME280;11176;51.448;6.650;2023-01-27T09:51:17;45692.00;;;-141.29;100.00
22025;BME280;11176;51.448;6.650;2023-01-27T09:57:05;45704.00;;;-141.29;100.00
22025;BME280;11176;51.448;6.650;2023-01-27T10:05:41;45694.00;;;-141.29;100.00
22025;BME280;11176;51.448;6.650;2023-01-27T10:11:17;45686.00;;;-141.29;100.00
22025;BME280;11176;51.448;6.650;2023-01-27T10:16:44;45694.00;;;-141.29;100.00
22025;BME280;11176;51.448;6.650;2023-01-27T10:19:29;45706.00;;;-141.29;100.00
22025;BME280;11176;51.448;6.650;2023-01-27T10:22:16;45678.03;;;-141.29;100.00
22025;BME280;11176;51.448;6.650;2023-01-27T10:24:55;45702.00;;;-141.29;100.00
22025;BME280;11176;51.448;6.650;2023-01-27T10:27:32;45708.00;;;-141.29;100.00
22025;BME280;11176;51.448;6.650;2023-01-27T10:30:14;45690.00;;;-141.29;100.00
22025;BME280;11176;51.448;6.650;2023-01-27T10:33:18;45698.00;;;-141.29;100.00
22025;BME280;11176;51.448;6.650;2023-01-27T10:35:58;45700.00;;;-141.29;100.00
22025;BME280;11176;51.448;6.650;2023-01-27T10:38:41;45680.03;;;-141.29;100.00
22025;BME280;11176;51.448;6.650;2023-01-27T10:44:22;45678.03;;;-141.29;100.00
22025;BME280;11176;51.448;6.650;2023-01-27T10:47:08;45686.00;;;-141.29;100.00
22025;BME280;11176;51.448;6.650;2023-01-27T10:49:50;45708.00;;;-141.29;100.00
22025;BME280;11176;51.448;6.650;2023-01-27T10:52:23;45706.00;;;-141.29;100.00
22025;BME280;11176;51.448;6.650;2023-01-27T10:55:22;45694.00;;;-141.29;100.00
22025;BME280;11176;51.448;6.650;2023-01-27T10:58:00;45706.00;;;-141.29;100.00
22025;BME280;11176;51.448;6.650;2023-01-27T11:00:38;45682.00;;;-141.29;100.00
22025;BME280;11176;51.448;6.650;2023-01-27T11:03:34;45692.00;;;-141.29;100.00
22025;BME280;11176;51.448;6.650;2023-01-27T11:06:07;45702.00;;;-141.29;100.00
22025;BME280;11176;51.448;6.650;2023-01-27T11:08:39;45682.00;;;-141.29;100.00
22025;BME280;11176;51.448;6.650;2023-01-27T11:11:08;45722.00;;;-141.29;100.00
22025;BME280;11176;51.448;6.650;2023-01-27T11:16:50;45698.00;;;-141.29;100.00
22025;BME280;11176;51.448;6.650;2023-01-27T11:19:26;45680.03;;;-141.29;100.00
22025;BME280;11176;51.448;6.650;2023-01-27T11:21:55;45694.00;;;-141.29;100.00
22025;BME280;11176;51.448;6.650;2023-01-27T11:24:42;45674.03;;;-141.29;100.00
22025;BME280;11176;51.448;6.650;2023-01-27T11:27:31;45694.00;;;-141.29;100.00
22025;BME280;11176;51.448;6.650;2023-01-27T11:30:12;45690.00;;;-141.29;100.00
22025;BME280;11176;51.448;6.650;2023-01-27T11:32:53;45694.00;;;-141.29;100.00
22025;BME280;11176;51.448;6.650;2023-01-27T11:35:24;45698.00;;;-141.29;100.00
22025;BME280;11176;51.448;6.650;2023-01-27T11:37:51;45682.00;;;-141.29;100.00
22025;BME280;11176;51.448;6.650;2023-01-27T11:40:33;45690.00;;;-141.29;100.00
22025;BME280;11176;51.448;6.650;2023-01-27T11:43:01;45672.03;;;-141.29;100.00
22025;BME280;11176;51.448;6.650;2023-01-27T11:45:34;45682.00;;;-141.29;100.00
22025;BME280;11176;51.448;6.650;2023-01-27T11:48:04;45706.00;;;-141.29;100.00
22025;BME280;11176;51.448;6.650;2023-01-27T11:50:34;45668.03;;;-141.29;100.00
22025;BME280;11176;51.448;6.650;2023-01-27T11:53:21;45686.00;;;-141.29;100.00
22025;BME280;11176;51.448;6.650;2023-01-27T11:55:59;45664.03;;;-141.29;100.00
22025;BME280;11176;51.448;6.650;2023-01-27T11:58:37;45678.03;;;-141.29;99.94
22025;BME280;11176;51.448;6.650;2023-01-27T12:01:12;45674.03;;;-141.29;98.74
22025;BME280;11176;51.448;6.650;2023-01-27T12:03:50;45692.00;;;-141.29;98.27
22025;BME280;11176;51.448;6.650;2023-01-27T12:06:29;45676.03;;;-141.29;100.00
22025;BME280;11176;51.448;6.650;2023-01-27T12:08:58;45674.03;;;-141.29;97.09
22025;BME280;11176;51.448;6.650;2023-01-27T12:11:25;45674.03;;;-141.29;97.59
22025;BME280;11176;51.448;6.650;2023-01-27T12:13:55;45678.03;;;-141.29;98.38
22025;BME280;11176;51.448;6.650;2023-01-27T12:16:47;45670.03;;;-141.29;97.58
22025;BME280;11176;51.448;6.650;2023-01-27T12:19:29;45668.03;;;-141.29;97.77
22025;BME280;11176;51.448;6.650;2023-01-27T12:22:00;45692.00;;;-141.29;96.94
22025;BME280;11176;51.448;6.650;2023-01-27T12:24:37;45694.00;;;-141.29;95.98
22025;BME280;11176;51.448;6.650;2023-01-27T12:27:05;45666.03;;;-141.29;95.65
22025;BME280;11176;51.448;6.650;2023-01-27T12:29:41;45666.03;;;-141.29;95.57
22025;BME280;11176;51.448;6.650;2023-01-27T12:32:26;45670.03;;;-141.29;95.89
22025;BME280;11176;51.448;6.650;2023-01-27T12:34:58;45694.00;;;-141.29;95.38
22025;BME280;11176;51.448;6.650;2023-01-27T12:37:32;45694.00;;;-141.29;95.55
22025;BME280;11176;51.448;6.650;2023-01-27T12:40:03;45674.03;;;-141.29;95.44
22025;BME280;11176;51.448;6.650;2023-01-27T12:42:41;45646.03;;;-141.29;94.66
22025;BME280;11176;51.448;6.650;2023-01-27T12:45:25;45656.03;;;-141.29;93.88
22025;BME280;11176;51.448;6.650;2023-01-27T12:48:15;45662.03;;;-141.29;94.11
22025;BME280;11176;51.448;6.650;2023-01-27T12:50:53;45672.03;;;-141.29;93.37
22025;BME280;11176;51.448;6.650;2023-01-27T12:53:24;45668.03;;;-141.29;93.19
22025;BME280;11176;51.448;6.650;2023-01-27T12:56:14;45668.03;;;-141.29;93.09
22025;BME280;11176;51.448;6.650;2023-01-27T12:58:44;45664.03;;;-141.29;92.91
22025;BME280;11176;51.448;6.650;2023-01-27T13:01:40;45680.03;;;-141.29;92.49
22025;BME280;11176;51.448;6.650;2023-01-27T13:04:20;45682.00;;;-141.29;93.06
22025;BME280;11176;51.448;6.650;2023-01-27T13:06:54;45662.03;;;-141.29;92.48
22025;BME280;11176;51.448;6.650;2023-01-27T13:09:23;45642.03;;;-141.29;91.91
22025;BME280;11176;51.448;6.650;2023-01-27T13:11:52;45672.03;;;-141.29;91.42
22025;BME280;11176;51.448;6.650;2023-01-27T13:14:20;45650.03;;;-141.29;91.09
22025;BME280;11176;51.448;6.650;2023-01-27T13:16:54;45658.03;;;-141.29;90.53
22025;BME280;11176;51.448;6.650;2023-01-27T13:19:31;45654.03;;;-141.29;90.19
22025;BME280;11176;51.448;6.650;2023-01-27T13:22:01;45656.03;;;-141.29;90.33